PWSweather.com
Personal Weather Stations
Station Observations
TARRYHILL
Tarrytown, NY 10591

Tarrytown, NY 10591

Lat: 41.05185, Lon: -73.85296

Elevation: 341

Station Type: Davis Vantage Vue

Latest ConditionsUpdated 5:10:13 PM EST Sunday, Jan 25, 2015
Currently Today's Max Today's Min Today's Average
Temperature 32.8°F0.4°C 39.3°F4.1°C 31.8°F-0.1°C 34.9°F1.6°C
Dew Point 15.7°F-9.1°C 29.3°F-1.5°C 13.5°F-10.3°C 23.3°F-4.8°C
Winds 1.1 mph W1.8 kmh W 7.9 mph WNW12.7 kmh WNW - 2.8 mph 4.5 kmh
Wind Gusts 7.0 mph11.3 kmh 15.0 mph24.1 kmh - -
Humidity 49% 82% 39% 65%
Pressure 29.84 in1010.5 mb 29.84 in1010.5 mb 29.48 in998.3 mb -
Hour Temp Dew Point Humidity Winds Wind Gusts Pressure Precip Precip Rate Daily Precip Total
05:10 PM 32.8°F0.4°C 15.7°F-9.1°C 49% 1.1 mph W1.8 kmh W 7.0 mph11.3 kmh 29.84 in1010.5 mb 0.00 in0.0 mm 0.00 in/hr0.0 mm/hr 0.09 in2.3 mm
05:00 PM 33.2°F0.7°C 15.1°F-9.4°C 47% 1.9 mph W3.1 kmh W 3.0 mph4.8 kmh 29.83 in1010.2 mb 0.00 in0.0 mm 0.00 in/hr0.0 mm/hr 0.09 in2.3 mm
04:50 PM 33.6°F0.9°C 15.5°F-9.2°C 47% 1.5 mph NW2.4 kmh NW 5.0 mph8.0 kmh 29.83 in1010.2 mb 0.00 in0.0 mm 0.00 in/hr0.0 mm/hr 0.09 in2.3 mm
04:40 PM 33.9°F1.1°C 14.3°F-9.8°C 44% 1.7 mph E2.7 kmh E 4.0 mph6.4 kmh 29.82 in1009.8 mb 0.00 in0.0 mm 0.00 in/hr0.0 mm/hr 0.09 in2.3 mm
04:30 PM 34.4°F1.3°C 14.2°F-9.9°C 43% 3.8 mph N6.1 kmh N 8.0 mph12.9 kmh 29.82 in1009.8 mb 0.00 in0.0 mm 0.00 in/hr0.0 mm/hr 0.09 in2.3 mm
04:20 PM 34.7°F1.5°C 15.0°F-9.4°C 44% 2.5 mph NE4.0 kmh NE 4.0 mph6.4 kmh 29.82 in1009.8 mb 0.00 in0.0 mm 0.00 in/hr0.0 mm/hr 0.09 in2.3 mm
04:10 PM 35.1°F1.7°C 14.3°F-9.8°C 42% 4.2 mph WNW6.8 kmh WNW 6.0 mph9.7 kmh 29.82 in1009.8 mb 0.00 in0.0 mm 0.00 in/hr0.0 mm/hr 0.09 in2.3 mm
04:00 PM 35.4°F1.9°C 14.0°F-10.0°C 41% 1.9 mph WSW3.1 kmh WSW 8.0 mph12.9 kmh 29.82 in1009.8 mb 0.00 in0.0 mm 0.00 in/hr0.0 mm/hr 0.09 in2.3 mm
03:50 PM 35.6°F2.0°C 13.7°F-10.2°C 40% 4.8 mph S7.7 kmh S 10.0 mph16.1 kmh 29.82 in1009.8 mb 0.00 in0.0 mm 0.00 in/hr0.0 mm/hr 0.09 in2.3 mm
03:40 PM 35.9°F2.2°C 15.5°F-9.2°C 43% 2.0 mph S3.2 kmh S 4.0 mph6.4 kmh 29.81 in1009.5 mb 0.00 in0.0 mm 0.00 in/hr0.0 mm/hr 0.09 in2.3 mm
03:30 PM 36.1°F2.3°C 13.5°F-10.3°C 39% 4.3 mph NW6.9 kmh NW 7.0 mph11.3 kmh 29.81 in1009.5 mb 0.00 in0.0 mm 0.00 in/hr0.0 mm/hr 0.07 in1.8 mm
03:20 PM 36.1°F2.3°C 14.6°F-9.7°C 41% 2.2 mph NW3.5 kmh NW 4.0 mph6.4 kmh 29.80 in1009.1 mb 0.00 in0.0 mm 0.00 in/hr0.0 mm/hr 0.07 in1.8 mm
03:10 PM 36.0°F2.2°C 15.1°F-9.4°C 42% 3.3 mph NW5.3 kmh NW 8.0 mph12.9 kmh 29.80 in1009.1 mb 0.00 in0.0 mm 0.00 in/hr0.0 mm/hr 0.07 in1.8 mm
03:00 PM 36.0°F2.2°C 14.5°F-9.7°C 41% 5.6 mph NE9.0 kmh NE 9.0 mph14.5 kmh 29.79 in1008.8 mb 0.00 in0.0 mm 0.00 in/hr0.0 mm/hr 0.07 in1.8 mm
02:50 PM 36.0°F2.2°C 15.7°F-9.1°C 43% 4.2 mph NNW6.8 kmh NNW 8.0 mph12.9 kmh 29.79 in1008.8 mb 0.00 in0.0 mm 0.00 in/hr0.0 mm/hr 0.07 in1.8 mm
02:40 PM 36.1°F2.3°C 15.7°F-9.1°C 43% 2.7 mph NW4.3 kmh NW 6.0 mph9.7 kmh 29.78 in1008.5 mb 0.00 in0.0 mm 0.00 in/hr0.0 mm/hr 0.07 in1.8 mm
02:30 PM 36.2°F2.3°C 15.8°F-9.0°C 43% 5.2 mph WNW8.4 kmh WNW 10.0 mph16.1 kmh 29.78 in1008.5 mb 0.00 in0.0 mm 0.00 in/hr0.0 mm/hr 0.07 in1.8 mm
02:20 PM 36.5°F2.5°C 15.6°F-9.1°C 42% 4.0 mph WNW6.4 kmh WNW 3.0 mph4.8 kmh 29.78 in1008.5 mb 0.00 in0.0 mm 0.00 in/hr0.0 mm/hr 0.07 in1.8 mm
02:10 PM 36.7°F2.6°C 16.3°F-8.7°C 43% 1.5 mph NNW2.4 kmh NNW 10.0 mph16.1 kmh 29.78 in1008.5 mb 0.00 in0.0 mm 0.00 in/hr0.0 mm/hr 0.07 in1.8 mm
02:00 PM 37.1°F2.8°C 16.1°F-8.8°C 42% 2.1 mph E3.4 kmh E 5.0 mph8.0 kmh 29.78 in1008.5 mb 0.00 in0.0 mm 0.00 in/hr0.0 mm/hr 0.07 in1.8 mm
01:50 PM 37.3°F2.9°C 16.3°F-8.7°C 42% 2.8 mph NW4.5 kmh NW 7.0 mph11.3 kmh 29.78 in1008.5 mb 0.00 in0.0 mm 0.00 in/hr0.0 mm/hr 0.07 in1.8 mm
01:40 PM 37.4°F3.0°C 17.0°F-8.3°C 43% 3.2 mph NNW5.1 kmh NNW 11.0 mph17.7 kmh 29.77 in1008.1 mb 0.01 in0.3 mm 0.06 in/hr1.5 mm/hr 0.07 in1.8 mm
01:30 PM 37.8°F3.2°C 17.8°F-7.9°C 44% 1.3 mph NW2.1 kmh NW 8.0 mph12.9 kmh 29.78 in1008.5 mb 0.00 in0.0 mm 0.00 in/hr0.0 mm/hr 0.06 in1.5 mm
01:20 PM 38.0°F3.3°C 18.0°F-7.8°C 44% 1.1 mph WSW1.8 kmh WSW 4.0 mph6.4 kmh 29.78 in1008.5 mb 0.00 in0.0 mm 0.00 in/hr0.0 mm/hr 0.06 in1.5 mm
01:10 PM 38.3°F3.5°C 17.7°F-7.9°C 43% 1.2 mph E1.9 kmh E 3.0 mph4.8 kmh 29.78 in1008.5 mb 0.00 in0.0 mm 0.00 in/hr0.0 mm/hr 0.06 in1.5 mm
01:00 PM 38.2°F3.4°C 18.2°F-7.7°C 44% 3.1 mph WSW5.0 kmh WSW 5.0 mph8.0 kmh 29.77 in1008.1 mb 0.00 in0.0 mm 0.00 in/hr0.0 mm/hr 0.06 in1.5 mm
12:50 PM 38.0°F3.3°C 19.0°F-7.2°C 46% 6.5 mph SW10.5 kmh SW 13.0 mph20.9 kmh 29.77 in1008.1 mb 0.00 in0.0 mm 0.00 in/hr0.0 mm/hr 0.06 in1.5 mm
12:40 PM 37.9°F3.3°C 19.9°F-6.7°C 48% 1.8 mph N2.9 kmh N 5.0 mph8.0 kmh 29.76 in1007.8 mb 0.00 in0.0 mm 0.00 in/hr0.0 mm/hr 0.06 in1.5 mm
12:30 PM 37.7°F3.2°C 18.8°F-7.3°C 46% 2.3 mph SSW3.7 kmh SSW 6.0 mph9.7 kmh 29.76 in1007.8 mb 0.00 in0.0 mm 0.00 in/hr0.0 mm/hr 0.06 in1.5 mm
12:20 PM 37.8°F3.2°C 18.8°F-7.3°C 46% 4.2 mph WSW6.8 kmh WSW 6.0 mph9.7 kmh 29.76 in1007.8 mb 0.00 in0.0 mm 0.00 in/hr0.0 mm/hr 0.06 in1.5 mm
12:10 PM 38.4°F3.6°C 21.8°F-5.7°C 51% 2.8 mph SE4.5 kmh SE 7.0 mph11.3 kmh 29.75 in1007.5 mb 0.01 in0.3 mm 0.06 in/hr1.5 mm/hr 0.06 in1.5 mm
12:00 PM 38.3°F3.5°C 21.7°F-5.7°C 51% 1.5 mph WSW2.4 kmh WSW 4.0 mph6.4 kmh 29.74 in1007.1 mb 0.00 in0.0 mm 0.00 in/hr0.0 mm/hr 0.06 in1.5 mm
11:50 AM 38.3°F3.5°C 21.3°F-5.9°C 50% 1.6 mph NW2.6 kmh NW 3.0 mph4.8 kmh 29.74 in1007.1 mb 0.00 in0.0 mm 0.00 in/hr0.0 mm/hr 0.05 in1.3 mm
11:40 AM 38.4°F3.6°C 20.9°F-6.2°C 49% 2.5 mph ENE4.0 kmh ENE 4.0 mph6.4 kmh 29.73 in1006.8 mb 0.00 in0.0 mm 0.00 in/hr0.0 mm/hr 0.05 in1.3 mm
11:30 AM 38.8°F3.8°C 22.2°F-5.4°C 51% 1.6 mph WSW2.6 kmh WSW 3.0 mph4.8 kmh 29.73 in1006.8 mb 0.00 in0.0 mm 0.00 in/hr0.0 mm/hr 0.05 in1.3 mm
11:20 AM 39.1°F3.9°C 21.5°F-5.8°C 49% 5.4 mph WNW8.7 kmh WNW 9.0 mph14.5 kmh 29.73 in1006.8 mb 0.01 in0.3 mm 0.06 in/hr1.5 mm/hr 0.05 in1.3 mm
11:10 AM 39.3°F4.1°C 21.7°F-5.7°C 49% 2.7 mph W4.3 kmh W 6.0 mph9.7 kmh 29.73 in1006.8 mb 0.00 in0.0 mm 0.00 in/hr0.0 mm/hr 0.04 in1.0 mm
11:00 AM 39.2°F4.0°C 22.1°F-5.5°C 50% 3.5 mph ENE5.6 kmh ENE 6.0 mph9.7 kmh 29.73 in1006.8 mb 0.01 in0.3 mm 0.01 in/hr0.3 mm/hr 0.04 in1.0 mm
10:50 AM 39.1°F3.9°C 22.5°F-5.3°C 51% 4.4 mph NW7.1 kmh NW 10.0 mph16.1 kmh 29.73 in1006.8 mb 0.01 in0.3 mm 0.06 in/hr1.5 mm/hr 0.03 in0.8 mm
10:40 AM 38.9°F3.8°C 22.3°F-5.4°C 51% 3.0 mph N4.8 kmh N 5.0 mph8.0 kmh 29.73 in1006.8 mb 0.01 in0.3 mm 0.06 in/hr1.5 mm/hr 0.03 in0.8 mm
10:30 AM 38.8°F3.8°C 23.1°F-4.9°C 53% 4.6 mph S7.4 kmh S 10.0 mph16.1 kmh 29.73 in1006.8 mb 0.01 in0.3 mm 0.06 in/hr1.5 mm/hr 0.02 in0.5 mm
10:20 AM 38.1°F3.4°C 23.3°F-4.8°C 55% 3.3 mph NW5.3 kmh NW 5.0 mph8.0 kmh 29.73 in1006.8 mb 0.00 in0.0 mm 0.00 in/hr0.0 mm/hr 0.01 in0.3 mm
10:10 AM 38.3°F3.5°C 24.4°F-4.2°C 57% 1.0 mph SW1.6 kmh SW 5.0 mph8.0 kmh 29.72 in1006.4 mb 0.00 in0.0 mm 0.00 in/hr0.0 mm/hr 0.01 in0.3 mm
10:00 AM 37.8°F3.2°C 24.3°F-4.3°C 58% 5.6 mph N9.0 kmh N 9.0 mph14.5 kmh 29.72 in1006.4 mb 0.01 in0.3 mm 0.01 in/hr0.3 mm/hr 0.01 in0.3 mm
09:50 AM 37.5°F3.1°C 25.7°F-3.5°C 62% 4.6 mph WNW7.4 kmh WNW 11.0 mph17.7 kmh 29.71 in1006.1 mb 0.00 in0.0 mm 0.00 in/hr0.0 mm/hr 0.01 in0.3 mm
09:40 AM 36.8°F2.7°C 26.5°F-3.1°C 66% 7.9 mph WNW12.7 kmh WNW 11.0 mph17.7 kmh 29.70 in1005.8 mb 0.00 in0.0 mm 0.00 in/hr0.0 mm/hr 0.01 in0.3 mm
09:30 AM 36.6°F2.6°C 28.4°F-2.0°C 72% 1.8 mph SW2.9 kmh SW 5.0 mph8.0 kmh 29.70 in1005.8 mb 0.00 in0.0 mm 0.00 in/hr0.0 mm/hr 0.01 in0.3 mm
09:20 AM 36.1°F2.3°C 29.3°F-1.5°C 76% 1.5 mph SW2.4 kmh SW 6.0 mph9.7 kmh 29.69 in1005.4 mb 0.00 in0.0 mm 0.00 in/hr0.0 mm/hr 0.01 in0.3 mm
09:10 AM 35.7°F2.1°C 28.9°F-1.7°C 76% 3.2 mph SSW5.1 kmh SSW 6.0 mph9.7 kmh 29.69 in1005.4 mb 0.00 in0.0 mm 0.00 in/hr0.0 mm/hr 0.01 in0.3 mm
09:00 AM 35.3°F1.8°C 28.8°F-1.8°C 77% 6.6 mph SSE10.6 kmh SSE 15.0 mph24.1 kmh 29.69 in1005.4 mb 0.00 in0.0 mm 0.00 in/hr0.0 mm/hr 0.01 in0.3 mm
08:50 AM 34.5°F1.4°C 28.7°F-1.8°C 79% 2.3 mph WSW3.7 kmh WSW 4.0 mph6.4 kmh 29.69 in1005.4 mb 0.00 in0.0 mm 0.00 in/hr0.0 mm/hr 0.01 in0.3 mm
08:40 AM 33.6°F0.9°C 28.1°F-2.2°C 80% 3.2 mph WSW5.1 kmh WSW 7.0 mph11.3 kmh 29.69 in1005.4 mb 0.01 in0.3 mm 0.06 in/hr1.5 mm/hr 0.01 in0.3 mm
08:30 AM 33.1°F0.6°C 27.6°F-2.4°C 80% 2.4 mph SW3.9 kmh SW 8.0 mph12.9 kmh 29.68 in1005.1 mb 0.00 in0.0 mm 0.00 in/hr0.0 mm/hr 0.00 in0.0 mm
08:20 AM 32.9°F0.5°C 27.7°F-2.4°C 81% 3.8 mph SSW6.1 kmh SSW 7.0 mph11.3 kmh 29.67 in1004.7 mb 0.00 in0.0 mm 0.00 in/hr0.0 mm/hr 0.00 in0.0 mm
08:10 AM 32.8°F0.4°C 27.3°F-2.6°C 80% 3.3 mph SE5.3 kmh SE 10.0 mph16.1 kmh 29.67 in1004.7 mb 0.00 in0.0 mm 0.00 in/hr0.0 mm/hr 0.00 in0.0 mm
08:00 AM 32.9°F0.5°C 27.4°F-2.6°C 80% 5.3 mph S8.5 kmh S 9.0 mph14.5 kmh 29.67 in1004.7 mb 0.00 in0.0 mm 0.00 in/hr0.0 mm/hr 0.00 in0.0 mm
07:50 AM 33.0°F0.6°C 27.5°F-2.5°C 80% 3.6 mph SSE5.8 kmh SSE 6.0 mph9.7 kmh 29.66 in1004.4 mb 0.00 in0.0 mm 0.00 in/hr0.0 mm/hr 0.00 in0.0 mm
07:40 AM 33.0°F0.6°C 27.5°F-2.5°C 80% 2.2 mph W3.5 kmh W 14.0 mph22.5 kmh 29.65 in1004.1 mb 0.00 in0.0 mm 0.00 in/hr0.0 mm/hr 0.00 in0.0 mm
07:30 AM 32.9°F0.5°C 27.4°F-2.6°C 80% 5.3 mph SE8.5 kmh SE 10.0 mph16.1 kmh 29.65 in1004.1 mb 0.00 in0.0 mm 0.00 in/hr0.0 mm/hr 0.00 in0.0 mm
07:20 AM 32.7°F0.4°C 27.2°F-2.7°C 80% 2.1 mph SW3.4 kmh SW 7.0 mph11.3 kmh 29.64 in1003.7 mb 0.00 in0.0 mm 0.00 in/hr0.0 mm/hr 0.00 in0.0 mm
07:10 AM 32.6°F0.3°C 27.1°F-2.7°C 80% 2.2 mph W3.5 kmh W 6.0 mph9.7 kmh 29.63 in1003.4 mb 0.00 in0.0 mm 0.00 in/hr0.0 mm/hr 0.00 in0.0 mm
07:00 AM 32.5°F0.3°C 27.0°F-2.8°C 80% 3.7 mph SSW6.0 kmh SSW 4.0 mph6.4 kmh 29.63 in1003.4 mb 0.00 in0.0 mm 0.00 in/hr0.0 mm/hr 0.00 in0.0 mm
06:50 AM 32.4°F0.2°C 26.9°F-2.8°C 80% 3.8 mph WSW6.1 kmh WSW 7.0 mph11.3 kmh 29.62 in1003.0 mb 0.00 in0.0 mm 0.00 in/hr0.0 mm/hr 0.00 in0.0 mm
06:40 AM 32.3°F0.2°C 27.1°F-2.7°C 81% 2.2 mph SW3.5 kmh SW 4.0 mph6.4 kmh 29.62 in1003.0 mb 0.00 in0.0 mm 0.00 in/hr0.0 mm/hr 0.00 in0.0 mm
06:30 AM 32.3°F0.2°C 26.8°F-2.9°C 80% 3.3 mph SSW5.3 kmh SSW 7.0 mph11.3 kmh 29.62 in1003.0 mb 0.00 in0.0 mm 0.00 in/hr0.0 mm/hr 0.00 in0.0 mm
06:20 AM 32.2°F0.1°C 26.8°F-2.9°C 80% 2.8 mph SW4.5 kmh SW 4.0 mph6.4 kmh 29.61 in1002.7 mb 0.00 in0.0 mm 0.00 in/hr0.0 mm/hr 0.00 in0.0 mm
06:10 AM 32.2°F0.1°C 27.0°F-2.8°C 81% 3.2 mph SE5.1 kmh SE 5.0 mph8.0 kmh 29.61 in1002.7 mb 0.00 in0.0 mm 0.00 in/hr0.0 mm/hr 0.00 in0.0 mm
06:00 AM 32.2°F0.1°C 27.0°F-2.8°C 81% 2.3 mph SW3.7 kmh SW 7.0 mph11.3 kmh 29.61 in1002.7 mb 0.00 in0.0 mm 0.00 in/hr0.0 mm/hr 0.00 in0.0 mm
05:50 AM 32.1°F0.1°C 26.9°F-2.8°C 81% 1.7 mph SW2.7 kmh SW 6.0 mph9.7 kmh 29.61 in1002.7 mb 0.00 in0.0 mm 0.00 in/hr0.0 mm/hr 0.00 in0.0 mm
05:40 AM 32.0°F0.0°C 26.8°F-2.9°C 81% 2.0 mph SW3.2 kmh SW 3.0 mph4.8 kmh 29.60 in1002.4 mb 0.00 in0.0 mm 0.00 in/hr0.0 mm/hr 0.00 in0.0 mm
05:30 AM 31.8°F-0.1°C 27.0°F-2.8°C 82% 2.1 mph SW3.4 kmh SW 7.0 mph11.3 kmh 29.60 in1002.4 mb 0.00 in0.0 mm 0.00 in/hr0.0 mm/hr 0.00 in0.0 mm
05:20 AM 31.8°F-0.1°C 26.6°F-3.0°C 81% 3.5 mph SW5.6 kmh SW 8.0 mph12.9 kmh 29.59 in1002.0 mb 0.00 in0.0 mm 0.00 in/hr0.0 mm/hr 0.00 in0.0 mm
05:10 AM 32.0°F0.0°C 26.8°F-2.9°C 81% 1.2 mph SSW1.9 kmh SSW 4.0 mph6.4 kmh 29.58 in1001.7 mb 0.00 in0.0 mm 0.00 in/hr0.0 mm/hr 0.00 in0.0 mm
05:00 AM 32.1°F0.1°C 26.9°F-2.8°C 81% 1.5 mph E2.4 kmh E 6.0 mph9.7 kmh 29.58 in1001.7 mb 0.00 in0.0 mm 0.00 in/hr0.0 mm/hr 0.00 in0.0 mm
04:50 AM 32.2°F0.1°C 27.0°F-2.8°C 81% 3.7 mph SW6.0 kmh SW 7.0 mph11.3 kmh 29.58 in1001.7 mb 0.00 in0.0 mm 0.00 in/hr0.0 mm/hr 0.00 in0.0 mm
04:40 AM 32.4°F0.2°C 27.0°F-2.8°C 80% 2.1 mph SW3.4 kmh SW 4.0 mph6.4 kmh 29.58 in1001.7 mb 0.00 in0.0 mm 0.00 in/hr0.0 mm/hr 0.00 in0.0 mm
04:30 AM 32.7°F0.4°C 27.2°F-2.7°C 80% 2.1 mph WSW3.4 kmh WSW 6.0 mph9.7 kmh 29.57 in1001.4 mb 0.00 in0.0 mm 0.00 in/hr0.0 mm/hr 0.00 in0.0 mm
04:20 AM 32.9°F0.5°C 27.4°F-2.6°C 80% 2.0 mph SSW3.2 kmh SSW 4.0 mph6.4 kmh 29.57 in1001.4 mb 0.00 in0.0 mm 0.00 in/hr0.0 mm/hr 0.00 in0.0 mm
04:10 AM 33.2°F0.7°C 27.4°F-2.6°C 79% 2.9 mph SW4.7 kmh SW 6.0 mph9.7 kmh 29.57 in1001.4 mb 0.00 in0.0 mm 0.00 in/hr0.0 mm/hr 0.00 in0.0 mm
04:00 AM 33.2°F0.7°C 27.4°F-2.6°C 79% 2.7 mph SW4.3 kmh SW 8.0 mph12.9 kmh 29.56 in1001.0 mb 0.00 in0.0 mm 0.00 in/hr0.0 mm/hr 0.00 in0.0 mm
03:50 AM 33.1°F0.6°C 27.3°F-2.6°C 79% 2.5 mph WSW4.0 kmh WSW 7.0 mph11.3 kmh 29.56 in1001.0 mb 0.00 in0.0 mm 0.00 in/hr0.0 mm/hr 0.00 in0.0 mm
03:40 AM 33.2°F0.7°C 27.1°F-2.7°C 78% 0.7 mph SW1.1 kmh SW 1.0 mph1.6 kmh 29.56 in1001.0 mb 0.00 in0.0 mm 0.00 in/hr0.0 mm/hr 0.00 in0.0 mm
03:30 AM 33.3°F0.7°C 27.2°F-2.7°C 78% 2.5 mph SW4.0 kmh SW 4.0 mph6.4 kmh 29.55 in1000.7 mb 0.00 in0.0 mm 0.00 in/hr0.0 mm/hr 0.00 in0.0 mm
03:20 AM 33.4°F0.8°C 27.3°F-2.6°C 78% 0.9 mph SE1.4 kmh SE 3.0 mph4.8 kmh 29.55 in1000.7 mb 0.00 in0.0 mm 0.00 in/hr0.0 mm/hr 0.00 in0.0 mm
03:10 AM 33.6°F0.9°C 27.2°F-2.7°C 77% 0.6 mph WSW1.0 kmh WSW 2.0 mph3.2 kmh 29.55 in1000.7 mb 0.00 in0.0 mm 0.00 in/hr0.0 mm/hr 0.00 in0.0 mm
03:00 AM 33.9°F1.1°C 27.4°F-2.6°C 77% 0.8 mph WSW1.3 kmh WSW 4.0 mph6.4 kmh 29.55 in1000.7 mb 0.00 in0.0 mm 0.00 in/hr0.0 mm/hr 0.00 in0.0 mm
02:50 AM 34.0°F1.1°C 27.2°F-2.7°C 76% 2.9 mph W4.7 kmh W 6.0 mph9.7 kmh 29.55 in1000.7 mb 0.00 in0.0 mm 0.00 in/hr0.0 mm/hr 0.00 in0.0 mm
02:40 AM 34.1°F1.2°C 27.3°F-2.6°C 76% 3.5 mph SW5.6 kmh SW 5.0 mph8.0 kmh 29.55 in1000.7 mb 0.00 in0.0 mm 0.00 in/hr0.0 mm/hr 0.00 in0.0 mm
02:30 AM 33.9°F1.1°C 27.4°F-2.6°C 77% 2.7 mph WSW4.3 kmh WSW 3.0 mph4.8 kmh 29.55 in1000.7 mb 0.00 in0.0 mm 0.00 in/hr0.0 mm/hr 0.00 in0.0 mm
02:20 AM 33.9°F1.1°C 27.4°F-2.6°C 77% 0.4 mph SW0.6 kmh SW 1.0 mph1.6 kmh 29.54 in1000.3 mb 0.00 in0.0 mm 0.00 in/hr0.0 mm/hr 0.00 in0.0 mm
02:10 AM 33.8°F1.0°C 27.3°F-2.6°C 77% 1.0 mph W1.6 kmh W 3.0 mph4.8 kmh 29.54 in1000.3 mb 0.00 in0.0 mm 0.00 in/hr0.0 mm/hr 0.00 in0.0 mm
02:00 AM 33.8°F1.0°C 27.0°F-2.8°C 76% 3.2 mph W5.1 kmh W 6.0 mph9.7 kmh 29.53 in1000.0 mb 0.00 in0.0 mm 0.00 in/hr0.0 mm/hr 0.00 in0.0 mm
01:50 AM 33.6°F0.9°C 27.1°F-2.7°C 77% 1.0 mph SW1.6 kmh SW 3.0 mph4.8 kmh 29.52 in999.7 mb 0.00 in0.0 mm 0.00 in/hr0.0 mm/hr 0.00 in0.0 mm
01:40 AM 33.5°F0.8°C 27.1°F-2.7°C 77% 3.2 mph ENE5.1 kmh ENE 6.0 mph9.7 kmh 29.52 in999.7 mb 0.00 in0.0 mm 0.00 in/hr0.0 mm/hr 0.00 in0.0 mm
01:30 AM 33.4°F0.8°C 27.0°F-2.8°C 77% 1.7 mph WSW2.7 kmh WSW 6.0 mph9.7 kmh 29.51 in999.3 mb 0.00 in0.0 mm 0.00 in/hr0.0 mm/hr 0.00 in0.0 mm
01:20 AM 33.4°F0.8°C 26.7°F-2.9°C 76% 2.6 mph SW4.2 kmh SW 4.0 mph6.4 kmh 29.51 in999.3 mb 0.00 in0.0 mm 0.00 in/hr0.0 mm/hr 0.00 in0.0 mm
01:10 AM 33.3°F0.7°C 26.9°F-2.8°C 77% 3.0 mph SW4.8 kmh SW 4.0 mph6.4 kmh 29.50 in999.0 mb 0.00 in0.0 mm 0.00 in/hr0.0 mm/hr 0.00 in0.0 mm
01:00 AM 33.1°F0.6°C 26.7°F-2.9°C 77% 3.0 mph SW4.8 kmh SW 8.0 mph12.9 kmh 29.50 in999.0 mb 0.00 in0.0 mm 0.00 in/hr0.0 mm/hr 0.00 in0.0 mm
12:50 AM 33.1°F0.6°C 26.7°F-2.9°C 77% 1.8 mph SW2.9 kmh SW 7.0 mph11.3 kmh 29.49 in998.6 mb 0.00 in0.0 mm 0.00 in/hr0.0 mm/hr 0.00 in0.0 mm
12:40 AM 33.0°F0.6°C 26.6°F-3.0°C 77% 1.1 mph WSW1.8 kmh WSW 3.0 mph4.8 kmh 29.49 in998.6 mb 0.00 in0.0 mm 0.00 in/hr0.0 mm/hr 0.00 in0.0 mm
12:30 AM 32.9°F0.5°C 26.5°F-3.1°C 77% 2.5 mph SW4.0 kmh SW 6.0 mph9.7 kmh 29.49 in998.6 mb 0.00 in0.0 mm 0.00 in/hr0.0 mm/hr 0.00 in0.0 mm
12:20 AM 32.8°F0.4°C 26.7°F-2.9°C 78% 1.8 mph WSW2.9 kmh WSW 5.0 mph8.0 kmh 29.48 in998.3 mb 0.00 in0.0 mm 0.00 in/hr0.0 mm/hr 0.00 in0.0 mm
12:10 AM 32.8°F0.4°C 26.4°F-3.1°C 77% 1.6 mph NW2.6 kmh NW 6.0 mph9.7 kmh 29.48 in998.3 mb 0.00 in0.0 mm 0.00 in/hr0.0 mm/hr 0.00 in0.0 mm
12:00 AM 32.8°F0.4°C 26.4°F-3.1°C 77% 3.0 mph SE4.8 kmh SE 10.0 mph16.1 kmh 29.48 in998.3 mb 0.00 in0.0 mm 0.00 in/hr0.0 mm/hr 0.00 in0.0 mm